createdAt,value
2022-10-01T06:11:21.043Z,16.88
2022-10-01T06:12:20.952Z,16.88
2022-10-01T06:13:20.930Z,16.88
2022-10-01T06:14:20.840Z,16.88
2022-10-01T06:15:20.754Z,16.88
2022-10-01T06:16:20.712Z,16.88
2022-10-01T06:17:20.620Z,22.50
2022-10-01T06:18:20.556Z,22.50
2022-10-01T06:19:20.485Z,22.50
2022-10-01T06:20:20.425Z,22.50
2022-10-01T06:21:20.358Z,22.50
2022-10-01T06:22:20.304Z,22.50
2022-10-01T06:23:20.229Z,22.50
2022-10-01T06:24:29.762Z,22.50
2022-10-01T06:26:24.528Z,22.50
2022-10-01T06:27:24.432Z,22.50
2022-10-01T06:28:24.452Z,22.50
2022-10-01T06:29:24.322Z,22.50
2022-10-01T06:30:24.235Z,28.13
2022-10-01T06:31:24.316Z,28.13
2022-10-01T06:32:24.089Z,28.13
2022-10-01T06:33:24.036Z,28.13
2022-10-01T06:34:23.965Z,28.13
2022-10-01T06:35:23.896Z,28.13
2022-10-01T06:36:23.837Z,33.75
2022-10-01T06:37:23.772Z,33.75
2022-10-01T06:38:23.706Z,33.75
2022-10-01T06:39:23.641Z,33.75
2022-10-01T06:40:23.574Z,33.75
2022-10-01T06:41:23.508Z,33.75
2022-10-01T06:42:23.454Z,39.38
2022-10-01T06:43:23.385Z,39.38
2022-10-01T06:44:23.314Z,39.38
2022-10-01T06:45:23.252Z,45.00
2022-10-01T06:46:23.221Z,45.00
2022-10-01T06:47:23.112Z,39.38
2022-10-01T06:48:23.062Z,39.38
2022-10-01T06:49:22.988Z,45.00
2022-10-01T06:50:22.923Z,45.00
2022-10-01T06:51:22.858Z,45.00
2022-10-01T06:52:22.793Z,39.38
2022-10-01T06:53:22.724Z,39.38
2022-10-01T06:54:22.673Z,39.38
2022-10-01T06:55:22.599Z,39.38
2022-10-01T06:56:22.529Z,45.00
2022-10-01T06:57:22.473Z,45.00
2022-10-01T06:58:22.402Z,45.00
2022-10-01T06:59:22.338Z,45.00
2022-10-01T07:00:22.275Z,45.00
2022-10-01T07:01:22.263Z,45.00
2022-10-01T07:02:22.158Z,45.00
2022-10-01T07:03:22.078Z,45.00
2022-10-01T07:04:22.019Z,39.38
2022-10-01T07:05:21.950Z,39.38
2022-10-01T07:06:21.882Z,45.00
2022-10-01T07:07:21.819Z,45.00
2022-10-01T07:08:21.758Z,45.00
2022-10-01T07:09:21.686Z,39.38
2022-10-01T07:10:21.622Z,39.38
2022-10-01T07:11:21.554Z,39.38
2022-10-01T07:12:21.493Z,39.38
2022-10-01T07:13:21.426Z,39.38
2022-10-01T07:14:21.365Z,39.38
2022-10-01T07:15:21.295Z,39.38
2022-10-01T07:16:21.282Z,45.00
2022-10-01T07:17:21.175Z,45.00
2022-10-01T07:18:21.108Z,45.00
2022-10-01T07:19:21.039Z,45.00
2022-10-01T07:20:20.974Z,45.00
2022-10-01T07:21:20.910Z,45.00
2022-10-01T07:22:20.842Z,45.00
2022-10-01T07:23:20.779Z,45.00
2022-10-01T07:24:20.711Z,39.38
2022-10-01T07:25:20.646Z,39.38
2022-10-01T07:26:20.581Z,39.38
2022-10-01T07:27:20.517Z,39.38
2022-10-01T07:28:20.558Z,39.38
2022-10-01T07:29:20.402Z,39.38
2022-10-01T07:30:20.325Z,39.38
2022-10-01T07:31:20.340Z,39.38
2022-10-01T07:32:20.189Z,39.38
2022-10-01T07:33:20.130Z,39.38
2022-10-01T07:34:20.065Z,39.38
2022-10-01T07:35:19.998Z,39.38
2022-10-01T07:36:19.931Z,39.38
2022-10-01T07:37:19.885Z,45.00
2022-10-01T07:38:19.804Z,45.00
2022-10-01T07:39:19.741Z,45.00
2022-10-01T07:40:19.679Z,45.00
2022-10-01T07:41:19.610Z,45.00
2022-10-01T07:42:19.548Z,45.00
2022-10-01T07:43:19.482Z,45.00
2022-10-01T07:44:19.410Z,45.00
2022-10-01T07:45:19.351Z,45.00
2022-10-01T07:46:19.353Z,45.00
2022-10-01T07:47:19.222Z,45.00
2022-10-01T07:48:19.158Z,45.00
2022-10-01T07:49:19.088Z,45.00
2022-10-01T07:50:19.028Z,45.00
2022-10-01T07:51:18.961Z,45.00
2022-10-01T07:52:18.898Z,45.00
2022-10-01T07:53:18.834Z,45.00
2022-10-01T07:54:18.771Z,45.00
2022-10-01T07:55:18.705Z,45.00
2022-10-01T07:56:18.635Z,45.00
2022-10-01T07:57:18.578Z,50.63
2022-10-01T07:58:18.506Z,50.63
2022-10-01T07:59:18.440Z,45.00
2022-10-01T08:00:18.384Z,45.00
2022-10-01T08:01:18.368Z,45.00
2022-10-01T08:02:18.339Z,45.00
2022-10-01T08:03:18.186Z,45.00
2022-10-01T08:04:18.115Z,45.00
2022-10-01T08:05:18.057Z,45.00
2022-10-01T08:06:21.937Z,50.63
2022-10-01T08:07:17.924Z,50.63
2022-10-01T08:08:17.866Z,50.63
2022-10-01T08:09:17.794Z,50.63
2022-10-01T08:10:17.735Z,50.63
2022-10-01T08:11:17.672Z,50.63
2022-10-01T08:12:17.606Z,50.63
2022-10-01T08:13:17.541Z,50.63
2022-10-01T08:14:17.479Z,50.63
2022-10-01T08:15:17.410Z,50.63
2022-10-01T08:16:17.401Z,50.63
2022-10-01T08:17:17.285Z,50.63
2022-10-01T08:18:17.218Z,56.25
2022-10-01T08:19:17.157Z,56.25
2022-10-01T08:20:17.090Z,56.25
2022-10-01T08:21:17.020Z,56.25
2022-10-01T08:22:16.957Z,56.25
2022-10-01T08:23:16.893Z,56.25
2022-10-01T08:24:16.825Z,56.25
2022-10-01T08:25:16.765Z,56.25
2022-10-01T08:26:16.699Z,56.25
2022-10-01T08:27:16.633Z,56.25
2022-10-01T08:28:16.693Z,56.25
2022-10-01T08:29:17.215Z,61.88
2022-10-01T08:30:16.450Z,61.88
2022-10-01T08:31:16.462Z,61.88
2022-10-01T08:32:16.311Z,61.88
2022-10-01T08:33:16.250Z,61.88
2022-10-01T08:34:16.188Z,61.88
2022-10-01T08:35:16.123Z,61.88
2022-10-01T08:36:16.059Z,61.88
2022-10-01T08:37:16.000Z,61.88
2022-10-01T08:38:15.930Z,61.88
2022-10-01T08:39:15.867Z,61.88
2022-10-01T08:40:15.801Z,61.88
2022-10-01T08:41:18.287Z,61.88
2022-10-01T08:42:15.674Z,61.88
2022-10-01T08:43:15.610Z,61.88
2022-10-01T08:44:15.544Z,56.25
2022-10-01T08:45:15.477Z,61.88
2022-10-01T08:46:15.488Z,67.50
2022-10-01T08:47:15.352Z,67.50
2022-10-01T08:48:15.288Z,67.50
2022-10-01T08:49:15.221Z,67.50
2022-10-01T08:50:15.163Z,67.50
2022-10-01T08:51:15.094Z,67.50
2022-10-01T08:52:15.031Z,67.50
2022-10-01T08:53:14.965Z,67.50
2022-10-01T08:54:14.898Z,67.50
2022-10-01T08:55:14.845Z,61.88
2022-10-01T08:56:14.775Z,61.88
2022-10-01T08:57:14.712Z,61.88
2022-10-01T08:58:14.645Z,61.88
2022-10-01T08:59:14.594Z,67.50
2022-10-01T09:00:14.535Z,73.13
2022-10-01T09:01:14.521Z,78.75
2022-10-01T09:02:14.391Z,78.75
2022-10-01T09:03:14.331Z,78.75
2022-10-01T09:04:14.335Z,73.13
2022-10-01T09:05:14.228Z,67.50
2022-10-01T09:06:14.188Z,67.50
2022-10-01T09:07:14.071Z,67.50
2022-10-01T09:08:14.005Z,73.13
2022-10-01T09:09:13.942Z,73.13
2022-10-01T09:10:13.877Z,73.13
2022-10-01T09:11:13.813Z,78.75
2022-10-01T09:12:13.760Z,73.13
2022-10-01T09:13:13.679Z,73.13
2022-10-01T09:14:13.624Z,73.13
2022-10-01T09:15:13.560Z,73.13
2022-10-01T09:16:13.629Z,73.13
2022-10-01T09:17:13.431Z,73.13
2022-10-01T09:18:13.372Z,78.75
2022-10-01T09:19:13.308Z,78.75
2022-10-01T09:20:13.245Z,84.38
2022-10-01T09:21:13.190Z,84.38
2022-10-01T09:22:13.112Z,84.38
2022-10-01T09:23:13.043Z,84.38
2022-10-01T09:24:12.977Z,78.75
2022-10-01T09:25:12.938Z,78.75
2022-10-01T09:26:12.856Z,73.13
2022-10-01T09:27:12.793Z,73.13
2022-10-01T09:28:12.749Z,73.13
2022-10-01T09:29:12.666Z,73.13
2022-10-01T09:30:12.598Z,67.50
2022-10-01T09:31:12.608Z,67.50
2022-10-01T09:32:12.472Z,61.88
2022-10-01T09:33:12.408Z,61.88
2022-10-01T09:34:12.343Z,56.25
2022-10-01T09:35:12.293Z,56.25
2022-10-01T09:36:12.216Z,56.25
2022-10-01T09:37:12.149Z,56.25
2022-10-01T09:38:12.090Z,50.63
2022-10-01T09:39:12.025Z,50.63
2022-10-01T09:40:11.957Z,50.63
2022-10-01T09:41:11.896Z,45.00
2022-10-01T09:42:11.832Z,45.00
2022-10-01T09:43:11.768Z,45.00
2022-10-01T09:44:13.892Z,45.00
2022-10-01T09:45:11.644Z,45.00
2022-10-01T09:46:11.623Z,39.38
2022-10-01T09:47:11.508Z,39.38
2022-10-01T09:48:11.451Z,39.38
2022-10-01T09:49:11.384Z,39.38
2022-10-01T09:50:11.319Z,39.38
2022-10-01T09:51:11.250Z,39.38
2022-10-01T09:52:11.185Z,39.38
2022-10-01T09:53:11.123Z,39.38
2022-10-01T09:54:11.058Z,39.38
2022-10-01T09:55:10.990Z,39.38
2022-10-01T09:56:10.932Z,39.38
2022-10-01T09:57:10.867Z,33.75
2022-10-01T09:58:10.804Z,39.38
2022-10-01T09:59:10.737Z,39.38
2022-10-01T10:00:10.676Z,39.38
2022-10-01T10:01:10.610Z,39.38
2022-10-01T10:02:10.651Z,39.38
2022-10-01T10:03:10.605Z,39.38
2022-10-01T10:04:10.419Z,45.00
2022-10-01T10:05:10.352Z,45.00
2022-10-01T10:06:10.311Z,50.63
2022-10-01T10:07:10.227Z,45.00
2022-10-01T10:08:10.159Z,50.63
2022-10-01T10:09:10.095Z,45.00
2022-10-01T10:10:10.025Z,45.00
2022-10-01T10:11:09.969Z,45.00
2022-10-01T10:12:09.903Z,39.38
2022-10-01T10:13:09.839Z,39.38
2022-10-01T10:14:09.788Z,45.00
2022-10-01T10:15:09.879Z,45.00
2022-10-01T10:16:09.690Z,45.00
2022-10-01T10:17:09.580Z,50.63
2022-10-01T10:18:09.518Z,50.63
2022-10-01T10:19:09.464Z,50.63
2022-10-01T10:20:09.388Z,56.25
2022-10-01T10:21:09.320Z,56.25
2022-10-01T10:22:09.258Z,56.25
2022-10-01T10:23:09.210Z,61.88
2022-10-01T10:24:09.127Z,61.88
2022-10-01T10:25:09.065Z,50.63
2022-10-01T10:26:08.997Z,50.63
2022-10-01T10:27:08.933Z,50.63
